createdAt,value
2022-10-11T00:01:53.604Z,99706.88
2022-10-11T00:04:20.468Z,99708.66
2022-10-11T00:06:47.654Z,99707.81
2022-10-11T00:09:16.255Z,99712.97
2022-10-11T00:11:43.290Z,99709.53
2022-10-11T00:14:10.339Z,99705.22
2022-10-11T00:16:41.127Z,99703.47
2022-10-11T00:19:08.044Z,99712.16
2022-10-11T00:21:34.876Z,99708.69
2022-10-11T00:24:01.777Z,99708.72
2022-10-11T00:26:28.848Z,99705.19
2022-10-11T00:28:55.949Z,99703.47
2022-10-11T00:31:23.517Z,99704.34
2022-10-11T00:33:50.354Z,99699.03
2022-10-11T00:36:17.421Z,99703.38
2022-10-11T00:38:45.411Z,99698.16
2022-10-11T00:41:13.314Z,99695.56
2022-10-11T00:43:40.484Z,99697.31
2022-10-11T00:46:26.225Z,99692.09
2022-10-11T00:49:04.922Z,99689.47
2022-10-11T00:51:46.140Z,99692.94
2022-10-11T00:54:16.677Z,99680.75
2022-10-11T00:56:46.581Z,99687.72
2022-10-11T00:59:19.318Z,99679.00
2022-10-11T01:01:46.369Z,99672.91
2022-10-11T01:04:13.307Z,99667.72
2022-10-11T01:06:40.711Z,99678.16
2022-10-11T01:09:07.944Z,99681.66
2022-10-11T01:11:37.965Z,99678.22
2022-10-11T01:14:17.963Z,99666.00
2022-10-11T01:16:53.431Z,99674.72
2022-10-11T01:19:26.243Z,99672.09
2022-10-11T01:22:24.122Z,99675.53
2022-10-11T01:25:06.063Z,99666.84
2022-10-11T01:28:01.845Z,99670.31
2022-10-11T01:30:31.923Z,99665.91
2022-10-11T01:33:13.477Z,99671.13
2022-10-11T01:35:59.285Z,99666.78
2022-10-11T01:38:47.004Z,99665.06
2022-10-11T01:41:42.142Z,99657.25
2022-10-11T01:44:11.307Z,99658.13
2022-10-11T01:46:38.452Z,99658.16
2022-10-11T01:49:06.002Z,99653.78
2022-10-11T01:51:54.734Z,99655.56
2022-10-11T01:55:09.023Z,99659.06
2022-10-11T01:58:14.306Z,99642.47
2022-10-11T02:01:05.510Z,99649.47
2022-10-11T02:03:43.850Z,99648.56
2022-10-11T02:06:54.359Z,99652.94
2022-10-11T02:09:34.058Z,99645.09
2022-10-11T02:12:07.599Z,99646.88
2022-10-11T02:14:42.979Z,99646.88
2022-10-11T02:17:18.427Z,99639.88
2022-10-11T02:19:50.382Z,99639.00
2022-10-11T02:22:35.363Z,99639.88
2022-10-11T02:25:08.837Z,99643.38
2022-10-11T02:27:39.887Z,99639.91
2022-10-11T02:30:08.908Z,99644.25
2022-10-11T02:32:40.594Z,99632.97
2022-10-11T02:35:08.741Z,99622.50
2022-10-11T02:37:59.229Z,99625.09
2022-10-11T02:40:35.972Z,99631.19
2022-10-11T02:43:14.011Z,99631.16
2022-10-11T02:45:50.091Z,99637.25
2022-10-11T02:48:18.148Z,99631.13
2022-10-11T02:50:45.391Z,99633.72
2022-10-11T02:53:12.312Z,99627.63
2022-10-11T02:55:39.753Z,99628.53
2022-10-11T02:58:06.786Z,99625.91
2022-10-11T03:00:33.836Z,99618.94
2022-10-11T03:03:00.788Z,99629.41
2022-10-11T03:05:27.751Z,99629.41
2022-10-11T03:07:54.590Z,99635.50
2022-10-11T03:10:21.581Z,99622.47
2022-10-11T03:12:49.558Z,99628.53
2022-10-11T03:15:16.576Z,99625.06
2022-10-11T03:17:43.396Z,99631.13
2022-10-11T03:20:10.594Z,99638.97
2022-10-11T03:22:37.460Z,99638.94
2022-10-11T03:25:05.077Z,99640.72
2022-10-11T03:27:33.420Z,99637.22
2022-10-11T03:30:00.543Z,99633.78
2022-10-11T03:32:27.872Z,99627.66
2022-10-11T03:34:54.733Z,99633.75
2022-10-11T03:37:21.712Z,99627.66
2022-10-11T03:39:48.931Z,99627.63
2022-10-11T03:42:15.768Z,99630.28
2022-10-11T03:44:42.756Z,99630.28
2022-10-11T03:47:10.235Z,99631.13
2022-10-11T03:49:41.328Z,99627.69
2022-10-11T03:52:10.522Z,99623.28
2022-10-11T03:54:37.415Z,99626.78
2022-10-11T03:57:04.274Z,99627.69
2022-10-11T03:59:31.371Z,99640.72
2022-10-11T04:01:58.250Z,99632.00
2022-10-11T04:04:25.120Z,99635.50
2022-10-11T04:06:52.024Z,99638.09
2022-10-11T04:09:18.865Z,99631.13
2022-10-11T04:11:45.747Z,99628.53
2022-10-11T04:14:12.743Z,99622.44
2022-10-11T04:16:40.284Z,99636.34
2022-10-11T04:19:07.358Z,99636.31
2022-10-11T04:21:34.570Z,99631.13
2022-10-11T04:24:01.406Z,99626.75
2022-10-11T04:26:28.195Z,99631.09
2022-10-11T04:28:55.224Z,99625.84
2022-10-11T04:31:22.681Z,99628.50
2022-10-11T04:33:49.692Z,99631.97
2022-10-11T04:36:16.581Z,99637.19
2022-10-11T04:38:43.521Z,99631.97
2022-10-11T04:41:12.791Z,99627.63
2022-10-11T04:43:39.642Z,99632.84
2022-10-11T04:46:07.697Z,99626.78
2022-10-11T04:48:34.751Z,99625.91
2022-10-11T04:51:01.721Z,99628.56
2022-10-11T04:53:28.739Z,99626.78
2022-10-11T04:56:01.524Z,99627.69
2022-10-11T04:58:29.643Z,99629.41
2022-10-11T05:00:56.790Z,99623.31
2022-10-11T05:03:24.893Z,99630.28
2022-10-11T05:05:53.002Z,99633.78
2022-10-11T05:08:23.249Z,99631.16
2022-10-11T05:10:57.883Z,99632.06
2022-10-11T05:13:25.560Z,99634.72
2022-10-11T05:15:52.456Z,99630.31
2022-10-11T05:18:20.193Z,99624.25
2022-10-11T05:20:47.342Z,99635.59
2022-10-11T05:23:14.852Z,99639.09
2022-10-11T05:25:41.932Z,99645.19
2022-10-11T05:28:08.830Z,99642.56
2022-10-11T05:30:35.805Z,99645.19
2022-10-11T05:33:02.739Z,99646.06
2022-10-11T05:35:29.564Z,99649.53
2022-10-11T05:37:56.444Z,99652.16
2022-10-11T05:40:23.373Z,99655.66
2022-10-11T05:42:50.203Z,99660.88
2022-10-11T05:45:17.154Z,99662.59
2022-10-11T05:47:44.078Z,99664.34
2022-10-11T05:50:11.346Z,99671.34
2022-10-11T05:52:38.262Z,99676.56
2022-10-11T05:55:05.493Z,99671.31
2022-10-11T05:57:32.292Z,99671.34
2022-10-11T05:59:59.150Z,99677.41
2022-10-11T06:02:26.011Z,99680.03
2022-10-11T06:04:52.830Z,99691.31
2022-10-11T06:07:19.635Z,99692.16
2022-10-11T06:09:46.651Z,99684.31
2022-10-11T06:12:16.158Z,99699.13
2022-10-11T06:14:43.806Z,99695.63
2022-10-11T06:17:11.087Z,99698.16
2022-10-11T06:19:37.902Z,99692.03
2022-10-11T06:22:04.961Z,99705.97
2022-10-11T06:24:31.853Z,99708.56
2022-10-11T06:26:58.839Z,99697.22
2022-10-11T06:29:25.747Z,99701.63
2022-10-11T06:31:52.639Z,99712.06
2022-10-11T06:34:19.485Z,99715.53
2022-10-11T06:36:46.312Z,99711.22
2022-10-11T06:39:13.247Z,99722.50
2022-10-11T06:41:40.150Z,99723.38
2022-10-11T06:44:10.744Z,99723.34
2022-10-11T06:46:40.280Z,99722.50
2022-10-11T06:49:07.808Z,99725.09
2022-10-11T06:51:35.852Z,99717.25
2022-10-11T06:54:03.772Z,99717.28
2022-10-11T06:56:31.727Z,99728.59
2022-10-11T06:58:59.727Z,99734.72
2022-10-11T07:01:26.931Z,99734.63
2022-10-11T07:03:55.612Z,99743.41
2022-10-11T07:06:25.340Z,99738.19
2022-10-11T07:08:53.071Z,99745.16
2022-10-11T07:11:26.457Z,99745.22
2022-10-11T07:13:59.655Z,99753.06
2022-10-11T07:16:27.595Z,99750.47
2022-10-11T07:19:00.218Z,99754.81
2022-10-11T07:21:30.876Z,99752.22
2022-10-11T07:23:57.864Z,99748.75
2022-10-11T07:26:24.922Z,99744.38
2022-10-11T07:28:52.244Z,99748.75
2022-10-11T07:31:22.855Z,99747.00
2022-10-11T07:33:49.924Z,99743.50
2022-10-11T07:36:16.985Z,99747.00
2022-10-11T07:38:46.393Z,99748.78
2022-10-11T07:41:14.055Z,99745.25
2022-10-11T07:43:41.071Z,99740.06
2022-10-11T07:46:08.278Z,99743.53
2022-10-11T07:48:36.629Z,99751.41
2022-10-11T07:51:10.126Z,99747.03
2022-10-11T07:53:42.337Z,99754.00
2022-10-11T07:56:10.639Z,99755.75
2022-10-11T07:58:37.599Z,99758.41
2022-10-11T08:01:04.550Z,99765.38
2022-10-11T08:03:31.419Z,99760.09
2022-10-11T08:06:07.541Z,99767.97
2022-10-11T08:08:34.929Z,99771.50
2022-10-11T08:11:02.110Z,99767.13
2022-10-11T08:13:29.033Z,99768.88
2022-10-11T08:15:56.184Z,99768.88
2022-10-11T08:18:23.091Z,99769.75
2022-10-11T08:20:49.982Z,99768.03
2022-10-11T08:23:18.971Z,99778.47
2022-10-11T08:25:48.345Z,99767.16
2022-10-11T08:28:18.071Z,99775.00
2022-10-11T08:30:53.228Z,99777.56
2022-10-11T08:33:21.681Z,99772.38
2022-10-11T08:35:49.925Z,99775.84
2022-10-11T08:38:17.153Z,99774.13
2022-10-11T08:41:20.388Z,99771.47
2022-10-11T08:44:20.216Z,99771.53
2022-10-11T08:46:53.254Z,99771.53
2022-10-11T08:49:27.155Z,99770.63
2022-10-11T08:52:04.684Z,99779.31
2022-10-11T08:54:49.021Z,99781.94
2022-10-11T08:57:23.082Z,99785.44
2022-10-11T09:00:00.182Z,99786.31
2022-10-11T09:03:09.678Z,99789.78
2022-10-11T09:05:51.357Z,99795.91
2022-10-11T09:08:36.408Z,99796.78
2022-10-11T09:11:08.356Z,99787.19
2022-10-11T09:13:52.522Z,99791.50
2022-10-11T09:16:47.446Z,99791.53
2022-10-11T09:19:34.346Z,99789.78
2022-10-11T09:22:39.556Z,99790.66
2022-10-11T09:25:27.914Z,99792.38
2022-10-11T09:28:19.632Z,99786.28
2022-10-11T09:30:49.599Z,99792.34
2022-10-11T09:33:38.900Z,99788.91
2022-10-11T09:36:25.031Z,99780.19
2022-10-11T09:39:06.432Z,99792.38
2022-10-11T09:41:55.209Z,99794.13
2022-10-11T09:44:24.746Z,99792.41
2022-10-11T09:46:54.186Z,99802.03
2022-10-11T09:49:25.726Z,99808.13
2022-10-11T09:52:01.370Z,99802.03
2022-10-11T09:54:42.848Z,99800.28
2022-10-11T09:57:40.450Z,99793.31
2022-10-11T10:00:07.333Z,99802.84
2022-10-11T10:02:47.001Z,99797.63
2022-10-11T10:05:18.127Z,99802.03
2022-10-11T10:08:05.232Z,99806.38
2022-10-11T10:11:09.472Z,99790.69
2022-10-11T10:13:54.504Z,99796.78
2022-10-11T10:16:27.978Z,99791.50
2022-10-11T10:19:01.982Z,99795.03
2022-10-11T10:21:39.280Z,99802.00
2022-10-11T10:24:09.935Z,99788.97
2022-10-11T10:26:38.151Z,99796.84
2022-10-11T10:29:11.233Z,99802.97
2022-10-11T10:35:13.103Z,99796.00
2022-10-11T10:37:53.075Z,99792.50
2022-10-11T10:40:36.182Z,99795.09
2022-10-11T10:43:03.963Z,99784.66
2022-10-11T10:45:57.579Z,99800.31
2022-10-11T10:49:12.011Z,99801.22
2022-10-11T10:51:44.382Z,99791.66
2022-10-11T10:54:29.015Z,99792.50
2022-10-11T10:57:01.996Z,99797.75
2022-10-11T11:00:03.842Z,99792.50
2022-10-11T11:02:49.292Z,99796.00
2022-10-11T11:05:37.871Z,99791.63
2022-10-11T11:08:19.571Z,99782.91
2022-10-11T11:10:56.161Z,99785.53
2022-10-11T11:13:22.782Z,99797.75
2022-10-11T11:16:20.991Z,99789.91
2022-10-11T11:19:34.554Z,99786.41
2022-10-11T11:22:27.102Z,99790.75
2022-10-11T11:25:12.520Z,99792.50
2022-10-11T11:27:58.353Z,99786.41
2022-10-11T11:30:46.856Z,99789.06
2022-10-11T11:33:32.502Z,99782.09
2022-10-11T11:36:06.033Z,99782.94
2022-10-11T11:38:46.734Z,99783.81
2022-10-11T11:41:36.450Z,99786.41
2022-10-11T11:44:37.394Z,99775.09
2022-10-11T11:47:11.353Z,99786.41
2022-10-11T11:49:45.223Z,99787.28
2022-10-11T11:52:25.382Z,99783.84
2022-10-11T11:55:09.159Z,99784.69
2022-10-11T11:58:11.170Z,99782.94
2022-10-11T12:00:55.309Z,99777.69
2022-10-11T12:03:28.125Z,99775.09
2022-10-11T12:06:13.977Z,99784.72
2022-10-11T12:09:06.580Z,99779.47
2022-10-11T12:12:00.281Z,99774.22
2022-10-11T12:14:33.405Z,99771.63
2022-10-11T12:17:08.677Z,99768.97
2022-10-11T12:19:37.876Z,99768.13
2022-10-11T12:22:37.086Z,99777.72
2022-10-11T12:25:10.697Z,99778.59
2022-10-11T12:27:48.498Z,99793.41
2022-10-11T12:30:33.901Z,99785.56
2022-10-11T12:33:13.517Z,99773.34
2022-10-11T12:35:50.998Z,99778.56
2022-10-11T12:38:34.700Z,99781.19
2022-10-11T12:41:10.450Z,99781.16
2022-10-11T12:44:19.558Z,99786.38
2022-10-11T12:46:55.346Z,99780.31
2022-10-11T12:49:28.102Z,99785.50
2022-10-11T12:52:04.545Z,99778.56
2022-10-11T12:54:56.086Z,99782.94
2022-10-11T12:57:46.501Z,99776.81
2022-10-11T13:00:29.218Z,99775.91
2022-10-11T13:02:58.568Z,99779.44
2022-10-11T13:05:45.014Z,99779.41
2022-10-11T13:08:22.970Z,99783.75
2022-10-11T13:10:49.783Z,99766.31
2022-10-11T13:13:22.767Z,99787.25
2022-10-11T13:15:51.867Z,99776.78
2022-10-11T13:18:18.906Z,99768.09
2022-10-11T13:20:45.647Z,99775.06
2022-10-11T13:23:30.550Z,99775.97
2022-10-11T13:25:57.379Z,99775.09
2022-10-11T13:28:24.419Z,99770.72
2022-10-11T13:30:55.077Z,99768.97
2022-10-11T13:33:32.204Z,99762.88
2022-10-11T13:36:05.822Z,99770.72
2022-10-11T13:38:35.997Z,99764.59
2022-10-11T13:41:08.890Z,99770.72
2022-10-11T13:43:36.595Z,99764.63
2022-10-11T13:46:07.521Z,99767.22
2022-10-11T13:48:40.755Z,99764.63
2022-10-11T13:51:29.037Z,99767.22
2022-10-11T13:54:00.043Z,99768.09
2022-10-11T13:56:29.857Z,99762.88
2022-10-11T13:58:57.204Z,99772.47
2022-10-11T14:01:39.902Z,99762.88
2022-10-11T14:04:09.827Z,99771.56
2022-10-11T14:07:03.088Z,99770.72
2022-10-11T14:09:37.110Z,99773.31
2022-10-11T14:12:32.316Z,99764.59
2022-10-11T14:15:05.318Z,99764.56
2022-10-11T14:17:44.598Z,99767.19
2022-10-11T14:20:11.807Z,99769.78
2022-10-11T14:22:39.270Z,99763.69
2022-10-11T14:25:06.496Z,99765.44
2022-10-11T14:27:33.398Z,99762.81
2022-10-11T14:30:24.624Z,99768.06
2022-10-11T14:32:49.716Z,99761.09
2022-10-11T14:35:19.206Z,99766.31
2022-10-11T14:37:46.226Z,99764.59
2022-10-11T14:40:16.436Z,99766.34
2022-10-11T14:42:43.721Z,99757.63
2022-10-11T14:45:11.191Z,99759.38
2022-10-11T14:47:42.825Z,99752.41
2022-10-11T14:50:41.116Z,99765.50
2022-10-11T14:53:09.964Z,99767.22
2022-10-11T14:55:39.047Z,99761.09
2022-10-11T14:58:07.069Z,99764.59
2022-10-11T15:00:34.075Z,99759.38
2022-10-11T15:03:00.918Z,99752.44
2022-10-11T15:05:33.994Z,99754.16
2022-10-11T15:08:05.020Z,99756.78
2022-10-11T15:10:38.515Z,99755.91
2022-10-11T15:13:09.454Z,99758.56
2022-10-11T15:15:40.784Z,99767.25
2022-10-11T15:18:09.794Z,99762.91
2022-10-11T15:20:43.014Z,99767.25
2022-10-11T15:23:10.515Z,99765.53
2022-10-11T15:25:39.656Z,99759.41
2022-10-11T15:28:07.332Z,99772.47
2022-10-11T15:30:41.072Z,99769.91
2022-10-11T15:33:09.315Z,99777.72
2022-10-11T15:35:36.258Z,99774.22
2022-10-11T15:38:03.128Z,99779.44
2022-10-11T15:40:35.739Z,99780.31
2022-10-11T15:43:03.350Z,99785.56
2022-10-11T15:45:30.603Z,99779.44
2022-10-11T15:47:57.743Z,99789.00
2022-10-11T15:50:34.614Z,99775.97
2022-10-11T15:53:04.235Z,99776.81
2022-10-11T15:55:32.983Z,99782.94
2022-10-11T15:58:01.302Z,99790.78
2022-10-11T16:00:29.563Z,99789.03
2022-10-11T16:02:58.568Z,99787.25
2022-10-11T16:05:27.580Z,99790.75
2022-10-11T16:07:55.152Z,99788.13
2022-10-11T16:10:22.503Z,99800.34
2022-10-11T16:12:49.591Z,99806.44
2022-10-11T16:15:16.847Z,99808.16
2022-10-11T16:17:43.768Z,99812.50
2022-10-11T16:20:10.588Z,99812.50
2022-10-11T16:22:37.450Z,99815.13
2022-10-11T16:25:04.869Z,99812.50
2022-10-11T16:27:32.777Z,99814.25
2022-10-11T16:30:01.002Z,99811.59
2022-10-11T16:32:28.218Z,99818.59
2022-10-11T16:34:55.071Z,99820.34
2022-10-11T16:37:21.955Z,99822.94
2022-10-11T16:39:48.967Z,99823.78
2022-10-11T16:42:15.874Z,99833.34
2022-10-11T16:44:42.724Z,99832.47
2022-10-11T16:47:09.586Z,99834.19
2022-10-11T16:49:36.443Z,99832.44
2022-10-11T16:52:04.618Z,99828.09
2022-10-11T16:54:32.520Z,99837.66
2022-10-11T16:57:00.109Z,99834.13
2022-10-11T16:59:27.543Z,99839.41
2022-10-11T17:01:55.219Z,99835.91
2022-10-11T17:04:22.381Z,99848.94
2022-10-11T17:06:49.306Z,99855.91
2022-10-11T17:09:16.399Z,99850.69
2022-10-11T17:11:43.754Z,99850.66
2022-10-11T17:14:12.556Z,99849.78
2022-10-11T17:16:39.650Z,99855.03
2022-10-11T17:19:13.101Z,99868.94
2022-10-11T17:21:40.202Z,99853.25
2022-10-11T17:24:07.754Z,99860.22
2022-10-11T17:26:37.380Z,99860.22
2022-10-11T17:29:04.405Z,99851.53
2022-10-11T17:31:31.326Z,99849.78
2022-10-11T17:34:00.188Z,99866.38
2022-10-11T17:36:35.876Z,99850.72
2022-10-11T17:39:09.144Z,99850.69
2022-10-11T17:41:36.059Z,99851.56
2022-10-11T17:44:03.323Z,99857.63
2022-10-11T17:46:34.034Z,99868.91
2022-10-11T17:49:04.941Z,99868.88
2022-10-11T17:51:31.951Z,99868.94
2022-10-11T17:53:59.141Z,99868.94
2022-10-11T17:56:30.405Z,99866.28
2022-10-11T17:58:59.764Z,99865.41
2022-10-11T18:01:29.439Z,99874.97
2022-10-11T18:04:01.631Z,99870.66
2022-10-11T18:06:31.234Z,99876.75
2022-10-11T18:09:01.554Z,99870.63
2022-10-11T18:11:29.021Z,99873.28
2022-10-11T18:13:56.274Z,99877.66
2022-10-11T18:16:27.082Z,99866.28
2022-10-11T18:18:54.888Z,99870.59
2022-10-11T18:21:21.738Z,99871.44
2022-10-11T18:23:48.561Z,99873.22
2022-10-11T18:26:23.522Z,99871.44
2022-10-11T18:28:55.382Z,99873.19
2022-10-11T18:31:25.474Z,99869.69
2022-10-11T18:33:52.695Z,99873.22
2022-10-11T18:36:22.633Z,99866.09
2022-10-11T18:38:54.174Z,99862.63
2022-10-11T18:41:22.476Z,99864.44
2022-10-11T18:43:54.564Z,99863.59
2022-10-11T18:46:21.905Z,99867.13
2022-10-11T18:48:50.757Z,99867.09
2022-10-11T18:51:22.483Z,99866.22
2022-10-11T18:53:49.780Z,99865.38
2022-10-11T18:56:20.728Z,99869.72
2022-10-11T18:58:49.917Z,99863.59
2022-10-11T19:01:19.988Z,99865.34
2022-10-11T19:03:48.686Z,99869.69
2022-10-11T19:06:18.447Z,99871.44
2022-10-11T19:08:50.827Z,99873.16
2022-10-11T19:11:22.360Z,99861.84
2022-10-11T19:13:55.806Z,99864.47
2022-10-11T19:16:22.966Z,99868.81
2022-10-11T19:18:51.029Z,99869.72
2022-10-11T19:21:18.083Z,99873.13
2022-10-11T19:23:46.512Z,99866.22
2022-10-11T19:26:32.132Z,99878.41
2022-10-11T19:29:08.351Z,99868.84
2022-10-11T19:31:37.360Z,99870.56
2022-10-11T19:34:04.391Z,99869.69
2022-10-11T19:36:36.268Z,99871.50
2022-10-11T19:39:05.332Z,99878.38
2022-10-11T19:41:32.951Z,99879.97
2022-10-11T19:43:59.885Z,99873.03
2022-10-11T19:46:49.888Z,99870.41
2022-10-11T19:49:17.731Z,99878.16
2022-10-11T19:51:45.026Z,99873.78
2022-10-11T19:54:14.076Z,99878.16
2022-10-11T19:56:41.316Z,99879.78
2022-10-11T19:59:08.700Z,99885.88
2022-10-11T20:01:36.849Z,99877.19
2022-10-11T20:04:06.865Z,99885.09
2022-10-11T20:06:38.330Z,99882.53
2022-10-11T20:09:29.383Z,99875.56
2022-10-11T20:11:56.374Z,99879.94
2022-10-11T20:14:23.208Z,99877.34
2022-10-11T20:16:50.796Z,99882.63
2022-10-11T20:19:18.753Z,99875.66
2022-10-11T20:21:45.620Z,99880.88
2022-10-11T20:24:12.846Z,99882.63
2022-10-11T20:26:40.306Z,99879.16
2022-10-11T20:29:07.511Z,99879.16
2022-10-11T20:31:38.574Z,99887.84
2022-10-11T20:34:07.585Z,99890.44
2022-10-11T20:36:36.311Z,99900.00
2022-10-11T20:39:04.659Z,99887.84
2022-10-11T20:41:34.348Z,99895.66
2022-10-11T20:44:02.211Z,99890.44
2022-10-11T20:46:31.688Z,99894.81
2022-10-11T20:49:10.579Z,99903.50
2022-10-11T20:51:39.169Z,99900.91
2022-10-11T20:54:06.186Z,99900.88
2022-10-11T20:56:34.095Z,99900.84
2022-10-11T20:59:01.518Z,99899.09
2022-10-11T21:01:34.770Z,99906.06
2022-10-11T21:04:02.264Z,99900.81
2022-10-11T21:06:30.854Z,99902.50
2022-10-11T21:08:59.259Z,99902.50
2022-10-11T21:11:32.024Z,99902.50
2022-10-11T21:14:00.595Z,99897.31
2022-10-11T21:16:28.488Z,99891.22
2022-10-11T21:18:57.794Z,99899.09
2022-10-11T21:21:25.662Z,99895.59
2022-10-11T21:23:57.527Z,99884.25
2022-10-11T21:26:25.112Z,99897.19
2022-10-11T21:28:52.280Z,99888.31
2022-10-11T21:31:20.876Z,99897.84
2022-10-11T21:33:47.963Z,99884.84
2022-10-11T21:36:16.783Z,99881.28
2022-10-11T21:38:43.674Z,99886.41
2022-10-11T21:41:13.664Z,99875.16
2022-10-11T21:43:40.603Z,99886.41
2022-10-11T21:46:16.104Z,99887.25
2022-10-11T21:48:42.925Z,99888.19
2022-10-11T21:51:15.848Z,99895.16
2022-10-11T21:53:42.840Z,99886.50
2022-10-11T21:56:09.621Z,99883.91
2022-10-11T21:58:36.430Z,99890.97
2022-10-11T22:01:03.502Z,99896.13
2022-10-11T22:03:30.483Z,99891.66
2022-10-11T22:05:57.401Z,99887.41
2022-10-11T22:08:24.286Z,99869.97
2022-10-11T22:10:56.544Z,99889.22
2022-10-11T22:13:24.275Z,99881.41
2022-10-11T22:15:51.185Z,99874.47
2022-10-11T22:18:18.237Z,99875.34
2022-10-11T22:20:45.243Z,99871.88
2022-10-11T22:23:12.274Z,99870.16
2022-10-11T22:25:39.997Z,99871.91
2022-10-11T22:28:07.755Z,99856.22
2022-10-11T22:33:33.519Z,99867.53
2022-10-11T22:36:02.490Z,99864.91
2022-10-11T22:38:29.365Z,99864.06
2022-10-11T22:40:58.741Z,99867.47
2022-10-11T22:43:25.665Z,99872.69
2022-10-11T22:45:52.631Z,99870.03
2022-10-11T22:48:19.804Z,99872.66
2022-10-11T22:50:46.958Z,99880.53
2022-10-11T22:53:14.411Z,99876.22
2022-10-11T22:55:42.188Z,99874.47
2022-10-11T22:58:09.310Z,99876.16
2022-10-11T23:00:36.311Z,99876.16
2022-10-11T23:03:03.157Z,99866.53
2022-10-11T23:05:30.054Z,99872.69
2022-10-11T23:07:56.865Z,99870.84
2022-10-11T23:10:23.726Z,99881.31
2022-10-11T23:12:50.544Z,99877.78
2022-10-11T23:15:17.490Z,99884.69
2022-10-11T23:17:44.422Z,99874.19
2022-10-11T23:20:11.834Z,99891.56
2022-10-11T23:22:38.646Z,99886.44
2022-10-11T23:25:06.223Z,99889.03
2022-10-11T23:27:33.066Z,99884.69
2022-10-11T23:29:59.884Z,99892.50
2022-10-11T23:32:26.783Z,99891.63
2022-10-11T23:34:53.633Z,99898.63
2022-10-11T23:37:20.943Z,99889.91
2022-10-11T23:39:47.851Z,99900.41
2022-10-11T23:42:14.746Z,99907.41
2022-10-11T23:44:41.684Z,99903.88
2022-10-11T23:47:08.793Z,99903.00
2022-10-11T23:49:35.574Z,99898.59
2022-10-11T23:52:02.526Z,99902.09
2022-10-11T23:54:29.481Z,99898.63
2022-10-11T23:56:56.296Z,99895.16
2022-10-11T23:59:26.418Z,99892.53
